Terminal Aerodrome Forecast
Issued by NWS Twin Cities, MN

Home | Current Version | Previous Version | Text Only | Print | Product List | Glossary Off
Versions: 1 2 3 4 5 6 7 8 9 10 11 12 13 14 15 16 17 18 19 20 21 22 23 24 25 26 27 28

226
FTUS43 KMPX 222334
TAFMSP
TAF
KMSP 222334Z 2300/2406 19006KT P6SM SCT250
     FM230900 21007KT P6SM BKN200
     FM231400 25009KT P6SM BKN150
     FM231700 28013G21KT P6SM BKN080
     FM240300 32009KT P6SM BKN120=

USA.gov is the U.S. government's official web portal to all federal, state and local government web resources and services.